sensor_id;sensor_type;location;lat;lon;timestamp;P1;durP1;ratioP1;P2;durP2;ratioP2
26102;SDS011;32703;49.182;9.042;2022-07-29T00:01:48;2.45;;;1.70;;
26102;SDS011;32703;49.182;9.042;2022-07-29T00:04:13;3.58;;;2.05;;
26102;SDS011;32703;49.182;9.042;2022-07-29T00:06:39;2.95;;;1.95;;
26102;SDS011;32703;49.182;9.042;2022-07-29T00:09:05;3.58;;;2.20;;
26102;SDS011;32703;49.182;9.042;2022-07-29T00:11:31;3.70;;;2.10;;
26102;SDS011;32703;49.182;9.042;2022-07-29T00:13:57;4.00;;;2.50;;
26102;SDS011;32703;49.182;9.042;2022-07-29T00:16:23;2.80;;;2.03;;
26102;SDS011;32703;49.182;9.042;2022-07-29T00:18:48;4.75;;;2.35;;
26102;SDS011;32703;49.182;9.042;2022-07-29T00:21:14;4.25;;;2.50;;
26102;SDS011;32703;49.182;9.042;2022-07-29T00:23:40;2.85;;;2.28;;
26102;SDS011;32703;49.182;9.042;2022-07-29T00:26:05;3.88;;;2.38;;
26102;SDS011;32703;49.182;9.042;2022-07-29T00:28:31;2.92;;;2.20;;
26102;SDS011;32703;49.182;9.042;2022-07-29T00:30:56;5.18;;;2.80;;
26102;SDS011;32703;49.182;9.042;2022-07-29T00:33:22;2.63;;;2.33;;
26102;SDS011;32703;49.182;9.042;2022-07-29T00:35:48;3.25;;;2.67;;
26102;SDS011;32703;49.182;9.042;2022-07-29T00:38:14;3.70;;;1.90;;
26102;SDS011;32703;49.182;9.042;2022-07-29T00:40:41;3.28;;;2.13;;
26102;SDS011;32703;49.182;9.042;2022-07-29T00:43:08;5.00;;;2.47;;
26102;SDS011;32703;49.182;9.042;2022-07-29T00:45:34;4.30;;;2.60;;
26102;SDS011;32703;49.182;9.042;2022-07-29T00:48:00;3.58;;;2.20;;
26102;SDS011;32703;49.182;9.042;2022-07-29T00:50:26;4.20;;;2.60;;
26102;SDS011;32703;49.182;9.042;2022-07-29T00:52:51;3.83;;;2.33;;
26102;SDS011;32703;49.182;9.042;2022-07-29T00:55:17;4.82;;;2.28;;
26102;SDS011;32703;49.182;9.042;2022-07-29T00:57:44;3.22;;;2.30;;
26102;SDS011;32703;49.182;9.042;2022-07-29T01:00:11;4.38;;;2.50;;
26102;SDS011;32703;49.182;9.042;2022-07-29T01:02:40;4.43;;;2.38;;
26102;SDS011;32703;49.182;9.042;2022-07-29T01:05:06;2.55;;;2.10;;
26102;SDS011;32703;49.182;9.042;2022-07-29T01:07:32;2.63;;;2.10;;
26102;SDS011;32703;49.182;9.042;2022-07-29T01:10:02;3.05;;;2.25;;
26102;SDS011;32703;49.182;9.042;2022-07-29T01:12:29;3.47;;;2.50;;
26102;SDS011;32703;49.182;9.042;2022-07-29T01:14:59;3.30;;;2.38;;
26102;SDS011;32703;49.182;9.042;2022-07-29T01:17:28;2.92;;;2.10;;
26102;SDS011;32703;49.182;9.042;2022-07-29T01:31:24;2.70;;;2.20;;
26102;SDS011;32703;49.182;9.042;2022-07-29T01:33:58;3.83;;;2.30;;
26102;SDS011;32703;49.182;9.042;2022-07-29T01:36:40;2.15;;;1.85;;
26102;SDS011;32703;49.182;9.042;2022-07-29T01:39:11;4.18;;;2.60;;
26102;SDS011;32703;49.182;9.042;2022-07-29T01:41:45;2.95;;;2.00;;
26102;SDS011;32703;49.182;9.042;2022-07-29T01:44:19;5.70;;;2.20;;
26102;SDS011;32703;49.182;9.042;2022-07-29T01:46:52;3.78;;;2.25;;
26102;SDS011;32703;49.182;9.042;2022-07-29T01:49:22;3.85;;;2.00;;
26102;SDS011;32703;49.182;9.042;2022-07-29T01:51:57;4.57;;;2.55;;
26102;SDS011;32703;49.182;9.042;2022-07-29T01:54:37;3.03;;;2.13;;
26102;SDS011;32703;49.182;9.042;2022-07-29T01:57:07;4.03;;;2.58;;
26102;SDS011;32703;49.182;9.042;2022-07-29T01:59:36;3.83;;;2.08;;
26102;SDS011;32703;49.182;9.042;2022-07-29T02:02:03;4.03;;;2.60;;
26102;SDS011;32703;49.182;9.042;2022-07-29T02:04:31;3.22;;;2.42;;
26102;SDS011;32703;49.182;9.042;2022-07-29T02:07:00;4.55;;;2.17;;
26102;SDS011;32703;49.182;9.042;2022-07-29T02:09:30;2.67;;;2.38;;
26102;SDS011;32703;49.182;9.042;2022-07-29T02:11:58;4.03;;;2.50;;
26102;SDS011;32703;49.182;9.042;2022-07-29T02:14:26;4.22;;;2.20;;
26102;SDS011;32703;49.182;9.042;2022-07-29T02:16:54;3.42;;;2.45;;
26102;SDS011;32703;49.182;9.042;2022-07-29T02:19:21;5.28;;;2.80;;
26102;SDS011;32703;49.182;9.042;2022-07-29T02:21:49;3.88;;;2.25;;
26102;SDS011;32703;49.182;9.042;2022-07-29T02:24:17;3.17;;;2.35;;
26102;SDS011;32703;49.182;9.042;2022-07-29T02:26:43;3.03;;;2.10;;
26102;SDS011;32703;49.182;9.042;2022-07-29T02:29:10;2.97;;;2.25;;
26102;SDS011;32703;49.182;9.042;2022-07-29T02:31:38;3.75;;;2.35;;
26102;SDS011;32703;49.182;9.042;2022-07-29T02:34:08;3.88;;;2.42;;
26102;SDS011;32703;49.182;9.042;2022-07-29T02:36:35;3.00;;;2.20;;
26102;SDS011;32703;49.182;9.042;2022-07-29T02:39:02;4.20;;;2.30;;
26102;SDS011;32703;49.182;9.042;2022-07-29T02:41:30;3.45;;;2.60;;
26102;SDS011;32703;49.182;9.042;2022-07-29T02:44:06;3.88;;;2.20;;
26102;SDS011;32703;49.182;9.042;2022-07-29T02:46:35;3.92;;;2.42;;
26102;SDS011;32703;49.182;9.042;2022-07-29T02:49:13;3.63;;;2.58;;
26102;SDS011;32703;49.182;9.042;2022-07-29T02:51:54;4.07;;;2.40;;
26102;SDS011;32703;49.182;9.042;2022-07-29T02:54:47;4.30;;;2.22;;
26102;SDS011;32703;49.182;9.042;2022-07-29T02:57:30;4.10;;;2.30;;
26102;SDS011;32703;49.182;9.042;2022-07-29T02:59:59;3.00;;;2.20;;
26102;SDS011;32703;49.182;9.042;2022-07-29T03:02:29;3.67;;;2.22;;
26102;SDS011;32703;49.182;9.042;2022-07-29T03:05:02;3.83;;;2.45;;
26102;SDS011;32703;49.182;9.042;2022-07-29T03:07:29;3.97;;;2.50;;
26102;SDS011;32703;49.182;9.042;2022-07-29T03:09:55;4.55;;;2.20;;
26102;SDS011;32703;49.182;9.042;2022-07-29T03:12:22;6.45;;;2.63;;
26102;SDS011;32703;49.182;9.042;2022-07-29T03:14:48;3.35;;;2.33;;
26102;SDS011;32703;49.182;9.042;2022-07-29T03:17:14;3.47;;;2.17;;
26102;SDS011;32703;49.182;9.042;2022-07-29T03:19:42;2.40;;;2.03;;
26102;SDS011;32703;49.182;9.042;2022-07-29T03:22:08;3.85;;;2.30;;
26102;SDS011;32703;49.182;9.042;2022-07-29T03:24:35;3.53;;;2.20;;
26102;SDS011;32703;49.182;9.042;2022-07-29T03:27:01;3.25;;;2.45;;
26102;SDS011;32703;49.182;9.042;2022-07-29T03:29:28;3.05;;;2.20;;
26102;SDS011;32703;49.182;9.042;2022-07-29T03:31:53;4.43;;;2.28;;
26102;SDS011;32703;49.182;9.042;2022-07-29T03:34:19;3.95;;;2.70;;
26102;SDS011;32703;49.182;9.042;2022-07-29T03:36:45;5.65;;;2.30;;
26102;SDS011;32703;49.182;9.042;2022-07-29T03:39:11;4.10;;;2.30;;
26102;SDS011;32703;49.182;9.042;2022-07-29T03:41:39;3.67;;;2.58;;
26102;SDS011;32703;49.182;9.042;2022-07-29T03:44:10;5.75;;;2.35;;
26102;SDS011;32703;49.182;9.042;2022-07-29T03:46:37;5.53;;;2.50;;
26102;SDS011;32703;49.182;9.042;2022-07-29T03:49:04;4.47;;;2.88;;
26102;SDS011;32703;49.182;9.042;2022-07-29T03:51:33;3.65;;;2.35;;
26102;SDS011;32703;49.182;9.042;2022-07-29T03:54:02;3.55;;;2.50;;
26102;SDS011;32703;49.182;9.042;2022-07-29T03:56:29;4.32;;;2.20;;
26102;SDS011;32703;49.182;9.042;2022-07-29T03:58:57;3.50;;;2.35;;
26102;SDS011;32703;49.182;9.042;2022-07-29T04:01:23;2.80;;;2.30;;
26102;SDS011;32703;49.182;9.042;2022-07-29T04:03:50;5.82;;;2.33;;
26102;SDS011;32703;49.182;9.042;2022-07-29T04:06:16;2.42;;;1.80;;
26102;SDS011;32703;49.182;9.042;2022-07-29T04:08:42;3.92;;;2.72;;
26102;SDS011;32703;49.182;9.042;2022-07-29T04:11:07;4.75;;;2.50;;
26102;SDS011;32703;49.182;9.042;2022-07-29T04:13:33;6.65;;;2.15;;
26102;SDS011;32703;49.182;9.042;2022-07-29T04:15:59;3.55;;;2.35;;
26102;SDS011;32703;49.182;9.042;2022-07-29T04:18:25;2.90;;;1.95;;
26102;SDS011;32703;49.182;9.042;2022-07-29T04:20:51;3.55;;;2.30;;
26102;SDS011;32703;49.182;9.042;2022-07-29T04:23:16;4.38;;;2.35;;
26102;SDS011;32703;49.182;9.042;2022-07-29T04:25:42;2.92;;;2.30;;
26102;SDS011;32703;49.182;9.042;2022-07-29T04:28:08;3.80;;;2.28;;
26102;SDS011;32703;49.182;9.042;2022-07-29T04:30:35;3.20;;;2.25;;
26102;SDS011;32703;49.182;9.042;2022-07-29T04:33:02;3.95;;;2.83;;
26102;SDS011;32703;49.182;9.042;2022-07-29T04:35:29;2.85;;;2.03;;
26102;SDS011;32703;49.182;9.042;2022-07-29T04:37:55;3.50;;;2.33;;
26102;SDS011;32703;49.182;9.042;2022-07-29T04:40:21;11.00;;;2.60;;
26102;SDS011;32703;49.182;9.042;2022-07-29T04:42:47;3.70;;;2.15;;
26102;SDS011;32703;49.182;9.042;2022-07-29T04:45:13;3.03;;;1.88;;
26102;SDS011;32703;49.182;9.042;2022-07-29T04:47:39;3.75;;;2.38;;
26102;SDS011;32703;49.182;9.042;2022-07-29T04:50:05;3.35;;;1.85;;
26102;SDS011;32703;49.182;9.042;2022-07-29T04:52:32;3.92;;;2.05;;
26102;SDS011;32703;49.182;9.042;2022-07-29T04:54:57;4.80;;;2.45;;
26102;SDS011;32703;49.182;9.042;2022-07-29T04:57:23;3.08;;;1.90;;
26102;SDS011;32703;49.182;9.042;2022-07-29T04:59:51;3.47;;;2.00;;
26102;SDS011;32703;49.182;9.042;2022-07-29T05:02:16;4.10;;;1.95;;
26102;SDS011;32703;49.182;9.042;2022-07-29T05:04:42;2.63;;;1.80;;
26102;SDS011;32703;49.182;9.042;2022-07-29T05:07:08;2.20;;;1.88;;
26102;SDS011;32703;49.182;9.042;2022-07-29T05:09:33;4.13;;;2.30;;
26102;SDS011;32703;49.182;9.042;2022-07-29T05:11:59;4.00;;;2.53;;
26102;SDS011;32703;49.182;9.042;2022-07-29T05:14:24;3.17;;;1.60;;
26102;SDS011;32703;49.182;9.042;2022-07-29T05:16:50;3.83;;;2.42;;
26102;SDS011;32703;49.182;9.042;2022-07-29T05:19:16;4.72;;;2.65;;
26102;SDS011;32703;49.182;9.042;2022-07-29T05:21:42;4.28;;;2.33;;
26102;SDS011;32703;49.182;9.042;2022-07-29T05:24:11;2.55;;;1.92;;
26102;SDS011;32703;49.182;9.042;2022-07-29T05:26:37;3.88;;;2.47;;
26102;SDS011;32703;49.182;9.042;2022-07-29T05:29:02;5.53;;;2.17;;
26102;SDS011;32703;49.182;9.042;2022-07-29T05:31:28;3.05;;;2.03;;
26102;SDS011;32703;49.182;9.042;2022-07-29T05:33:54;4.10;;;2.10;;
26102;SDS011;32703;49.182;9.042;2022-07-29T05:36:19;3.40;;;2.15;;
26102;SDS011;32703;49.182;9.042;2022-07-29T05:38:45;6.50;;;2.42;;
26102;SDS011;32703;49.182;9.042;2022-07-29T05:41:10;3.38;;;2.28;;
26102;SDS011;32703;49.182;9.042;2022-07-29T05:43:36;3.35;;;2.25;;
26102;SDS011;32703;49.182;9.042;2022-07-29T05:46:02;3.83;;;2.40;;
26102;SDS011;32703;49.182;9.042;2022-07-29T05:48:27;3.70;;;2.10;;
26102;SDS011;32703;49.182;9.042;2022-07-29T05:50:53;3.90;;;2.50;;
26102;SDS011;32703;49.182;9.042;2022-07-29T05:53:19;2.90;;;2.20;;
26102;SDS011;32703;49.182;9.042;2022-07-29T05:55:45;4.25;;;2.55;;
26102;SDS011;32703;49.182;9.042;2022-07-29T05:58:10;3.28;;;2.05;;
26102;SDS011;32703;49.182;9.042;2022-07-29T06:00:36;4.43;;;2.30;;
26102;SDS011;32703;49.182;9.042;2022-07-29T06:03:01;2.80;;;2.13;;
26102;SDS011;32703;49.182;9.042;2022-07-29T06:05:27;3.15;;;2.17;;
26102;SDS011;32703;49.182;9.042;2022-07-29T06:07:52;3.28;;;2.00;;
26102;SDS011;32703;49.182;9.042;2022-07-29T06:10:18;2.28;;;1.85;;
26102;SDS011;32703;49.182;9.042;2022-07-29T06:12:44;3.03;;;2.33;;
26102;SDS011;32703;49.182;9.042;2022-07-29T06:15:09;2.65;;;1.98;;
26102;SDS011;32703;49.182;9.042;2022-07-29T06:17:35;4.03;;;2.38;;
26102;SDS011;32703;49.182;9.042;2022-07-29T06:20:01;2.75;;;2.13;;
26102;SDS011;32703;49.182;9.042;2022-07-29T06:22:27;4.57;;;2.10;;
26102;SDS011;32703;49.182;9.042;2022-07-29T06:24:53;5.00;;;2.15;;
26102;SDS011;32703;49.182;9.042;2022-07-29T06:27:19;2.95;;;2.20;;
26102;SDS011;32703;49.182;9.042;2022-07-29T06:29:44;2.97;;;2.15;;
26102;SDS011;32703;49.182;9.042;2022-07-29T06:32:10;2.03;;;1.58;;
26102;SDS011;32703;49.182;9.042;2022-07-29T06:34:36;3.05;;;2.13;;
26102;SDS011;32703;49.182;9.042;2022-07-29T06:37:07;2.67;;;1.85;;
26102;SDS011;32703;49.182;9.042;2022-07-29T06:39:34;3.17;;;2.03;;
26102;SDS011;32703;49.182;9.042;2022-07-29T06:42:01;3.00;;;2.10;;
26102;SDS011;32703;49.182;9.042;2022-07-29T06:44:27;2.80;;;1.85;;
26102;SDS011;32703;49.182;9.042;2022-07-29T06:46:53;3.33;;;2.15;;
26102;SDS011;32703;49.182;9.042;2022-07-29T06:49:19;2.05;;;1.63;;
26102;SDS011;32703;49.182;9.042;2022-07-29T06:51:45;3.13;;;2.20;;
26102;SDS011;32703;49.182;9.042;2022-07-29T06:54:11;5.43;;;2.00;;
26102;SDS011;32703;49.182;9.042;2022-07-29T06:56:37;4.45;;;2.00;;
26102;SDS011;32703;49.182;9.042;2022-07-29T06:59:03;4.97;;;2.50;;
26102;SDS011;32703;49.182;9.042;2022-07-29T07:01:29;2.60;;;1.90;;
26102;SDS011;32703;49.182;9.042;2022-07-29T07:03:55;3.40;;;2.30;;
26102;SDS011;32703;49.182;9.042;2022-07-29T07:06:21;4.20;;;1.90;;
26102;SDS011;32703;49.182;9.042;2022-07-29T07:08:46;2.72;;;1.95;;
26102;SDS011;32703;49.182;9.042;2022-07-29T07:11:12;3.33;;;2.30;;
26102;SDS011;32703;49.182;9.042;2022-07-29T07:13:38;3.78;;;2.10;;
26102;SDS011;32703;49.182;9.042;2022-07-29T07:16:04;4.13;;;1.83;;
26102;SDS011;32703;49.182;9.042;2022-07-29T07:18:29;2.45;;;1.55;;
26102;SDS011;32703;49.182;9.042;2022-07-29T07:20:56;2.58;;;2.08;;
26102;SDS011;32703;49.182;9.042;2022-07-29T07:23:22;2.58;;;1.98;;
26102;SDS011;32703;49.182;9.042;2022-07-29T07:25:47;2.58;;;2.10;;
26102;SDS011;32703;49.182;9.042;2022-07-29T07:28:13;2.85;;;2.17;;
26102;SDS011;32703;49.182;9.042;2022-07-29T07:30:39;3.10;;;2.50;;
26102;SDS011;32703;49.182;9.042;2022-07-29T07:33:04;2.13;;;1.90;;
26102;SDS011;32703;49.182;9.042;2022-07-29T07:35:30;3.33;;;2.20;;
26102;SDS011;32703;49.182;9.042;2022-07-29T07:37:56;3.95;;;2.50;;
26102;SDS011;32703;49.182;9.042;2022-07-29T07:40:22;4.75;;;2.00;;
26102;SDS011;32703;49.182;9.042;2022-07-29T07:42:48;2.67;;;1.88;;
26102;SDS011;32703;49.182;9.042;2022-07-29T07:45:13;2.95;;;2.40;;
26102;SDS011;32703;49.182;9.042;2022-07-29T07:47:39;3.47;;;2.28;;
26102;SDS011;32703;49.182;9.042;2022-07-29T07:50:05;8.93;;;2.40;;
26102;SDS011;32703;49.182;9.042;2022-07-29T07:52:36;2.72;;;2.20;;
26102;SDS011;32703;49.182;9.042;2022-07-29T07:55:14;3.67;;;2.22;;
26102;SDS011;32703;49.182;9.042;2022-07-29T07:57:40;3.90;;;2.50;;
26102;SDS011;32703;49.182;9.042;2022-07-29T08:00:06;3.10;;;2.08;;
26102;SDS011;32703;49.182;9.042;2022-07-29T08:02:32;3.65;;;2.35;;
26102;SDS011;32703;49.182;9.042;2022-07-29T08:04:58;3.53;;;2.50;;
26102;SDS011;32703;49.182;9.042;2022-07-29T08:07:24;2.65;;;2.35;;
26102;SDS011;32703;49.182;9.042;2022-07-29T08:09:50;2.30;;;2.05;;
26102;SDS011;32703;49.182;9.042;2022-07-29T08:12:15;2.47;;;2.25;;
26102;SDS011;32703;49.182;9.042;2022-07-29T08:14:41;3.33;;;2.30;;
26102;SDS011;32703;49.182;9.042;2022-07-29T08:17:06;4.68;;;2.80;;
26102;SDS011;32703;49.182;9.042;2022-07-29T08:19:32;5.72;;;2.38;;
26102;SDS011;32703;49.182;9.042;2022-07-29T08:21:58;3.22;;;2.20;;
26102;SDS011;32703;49.182;9.042;2022-07-29T08:24:23;3.78;;;2.33;;
26102;SDS011;32703;49.182;9.042;2022-07-29T08:27:07;3.63;;;2.25;;
26102;SDS011;32703;49.182;9.042;2022-07-29T08:29:33;2.17;;;1.98;;
26102;SDS011;32703;49.182;9.042;2022-07-29T08:31:59;2.83;;;2.40;;
26102;SDS011;32703;49.182;9.042;2022-07-29T08:34:25;2.67;;;2.15;;
26102;SDS011;32703;49.182;9.042;2022-07-29T08:36:50;2.97;;;1.92;;
26102;SDS011;32703;49.182;9.042;2022-07-29T08:39:16;2.45;;;2.00;;
26102;SDS011;32703;49.182;9.042;2022-07-29T08:41:42;3.38;;;2.38;;
26102;SDS011;32703;49.182;9.042;2022-07-29T08:44:08;2.35;;;2.15;;
26102;SDS011;32703;49.182;9.042;2022-07-29T08:46:34;2.85;;;2.35;;
26102;SDS011;32703;49.182;9.042;2022-07-29T08:49:03;2.67;;;2.42;;
26102;SDS011;32703;49.182;9.042;2022-07-29T08:51:29;4.05;;;2.75;;
26102;SDS011;32703;49.182;9.042;2022-07-29T08:53:57;5.75;;;2.30;;
26102;SDS011;32703;49.182;9.042;2022-07-29T08:56:24;4.25;;;2.50;;
26102;SDS011;32703;49.182;9.042;2022-07-29T08:58:50;2.78;;;2.45;;
26102;SDS011;32703;49.182;9.042;2022-07-29T09:01:22;3.20;;;2.35;;
26102;SDS011;32703;49.182;9.042;2022-07-29T09:03:49;5.35;;;2.63;;
26102;SDS011;32703;49.182;9.042;2022-07-29T09:06:17;3.30;;;2.28;;
26102;SDS011;32703;49.182;9.042;2022-07-29T09:08:44;3.20;;;2.30;;
26102;SDS011;32703;49.182;9.042;2022-07-29T09:11:11;7.30;;;2.90;;
26102;SDS011;32703;49.182;9.042;2022-07-29T09:13:39;5.43;;;2.50;;
26102;SDS011;32703;49.182;9.042;2022-07-29T09:16:06;4.13;;;2.30;;
26102;SDS011;32703;49.182;9.042;2022-07-29T09:18:39;4.80;;;2.33;;
26102;SDS011;32703;49.182;9.042;2022-07-29T09:21:06;3.42;;;2.55;;
26102;SDS011;32703;49.182;9.042;2022-07-29T09:26:33;3.20;;;2.88;;
26102;SDS011;32703;49.182;9.042;2022-07-29T09:29:00;3.60;;;2.80;;
26102;SDS011;32703;49.182;9.042;2022-07-29T09:31:44;3.92;;;2.70;;
26102;SDS011;32703;49.182;9.042;2022-07-29T09:34:11;4.45;;;2.75;;
26102;SDS011;32703;49.182;9.042;2022-07-29T09:36:42;3.53;;;2.80;;
26102;SDS011;32703;49.182;9.042;2022-07-29T09:39:09;4.05;;;2.40;;
26102;SDS011;32703;49.182;9.042;2022-07-29T09:41:49;5.18;;;3.38;;
26102;SDS011;32703;49.182;9.042;2022-07-29T09:44:19;3.03;;;2.53;;
26102;SDS011;32703;49.182;9.042;2022-07-29T09:46:55;4.10;;;2.97;;
26102;SDS011;32703;49.182;9.042;2022-07-29T09:49:21;3.83;;;2.97;;
26102;SDS011;32703;49.182;9.042;2022-07-29T09:51:46;4.82;;;2.95;;
26102;SDS011;32703;49.182;9.042;2022-07-29T09:54:25;4.60;;;3.10;;
26102;SDS011;32703;49.182;9.042;2022-07-29T09:56:51;4.65;;;2.67;;
26102;SDS011;32703;49.182;9.042;2022-07-29T09:59:18;3.22;;;2.85;;
26102;SDS011;32703;49.182;9.042;2022-07-29T10:01:45;5.65;;;3.05;;
26102;SDS011;32703;49.182;9.042;2022-07-29T10:04:11;5.40;;;3.28;;
26102;SDS011;32703;49.182;9.042;2022-07-29T10:06:54;5.43;;;2.90;;
26102;SDS011;32703;49.182;9.042;2022-07-29T10:09:21;4.53;;;3.35;;
26102;SDS011;32703;49.182;9.042;2022-07-29T10:12:02;3.00;;;2.70;;
26102;SDS011;32703;49.182;9.042;2022-07-29T10:14:31;3.78;;;3.15;;
26102;SDS011;32703;49.182;9.042;2022-07-29T10:16:59;6.70;;;2.95;;
26102;SDS011;32703;49.182;9.042;2022-07-29T10:19:27;3.75;;;2.95;;
26102;SDS011;32703;49.182;9.042;2022-07-29T10:21:54;4.57;;;2.80;;
26102;SDS011;32703;49.182;9.042;2022-07-29T10:24:21;4.40;;;3.13;;
26102;SDS011;32703;49.182;9.042;2022-07-29T10:26:47;4.60;;;2.90;;
26102;SDS011;32703;49.182;9.042;2022-07-29T10:29:13;5.13;;;3.15;;
26102;SDS011;32703;49.182;9.042;2022-07-29T10:31:50;3.00;;;2.67;;
26102;SDS011;32703;49.182;9.042;2022-07-29T10:36:54;6.57;;;3.50;;
26102;SDS011;32703;49.182;9.042;2022-07-29T10:42:59;3.47;;;2.80;;
26102;SDS011;32703;49.182;9.042;2022-07-29T10:45:39;3.95;;;3.13;;
26102;SDS011;32703;49.182;9.042;2022-07-29T10:48:05;5.63;;;3.40;;
26102;SDS011;32703;49.182;9.042;2022-07-29T10:53:51;4.10;;;2.92;;
26102;SDS011;32703;49.182;9.042;2022-07-29T10:56:24;7.63;;;3.05;;
26102;SDS011;32703;49.182;9.042;2022-07-29T11:01:50;4.47;;;3.13;;
26102;SDS011;32703;49.182;9.042;2022-07-29T11:07:09;4.88;;;3.22;;
26102;SDS011;32703;49.182;9.042;2022-07-29T11:09:35;4.00;;;3.17;;
26102;SDS011;32703;49.182;9.042;2022-07-29T11:12:01;4.40;;;3.25;;
26102;SDS011;32703;49.182;9.042;2022-07-29T11:20:30;3.50;;;2.78;;
26102;SDS011;32703;49.182;9.042;2022-07-29T11:22:56;4.07;;;2.92;;
26102;SDS011;32703;49.182;9.042;2022-07-29T11:25:23;3.63;;;3.20;;
26102;SDS011;32703;49.182;9.042;2022-07-29T11:27:49;3.63;;;3.13;;
26102;SDS011;32703;49.182;9.042;2022-07-29T11:30:47;3.92;;;3.10;;
26102;SDS011;32703;49.182;9.042;2022-07-29T11:33:30;4.50;;;2.72;;
26102;SDS011;32703;49.182;9.042;2022-07-29T11:36:09;3.80;;;2.80;;
26102;SDS011;32703;49.182;9.042;2022-07-29T11:38:36;4.05;;;2.55;;
26102;SDS011;32703;49.182;9.042;2022-07-29T11:41:21;6.13;;;2.53;;
26102;SDS011;32703;49.182;9.042;2022-07-29T11:43:58;3.40;;;2.85;;
26102;SDS011;32703;49.182;9.042;2022-07-29T11:46:46;4.95;;;2.70;;
26102;SDS011;32703;49.182;9.042;2022-07-29T11:49:21;4.00;;;2.80;;
26102;SDS011;32703;49.182;9.042;2022-07-29T11:51:54;3.28;;;2.70;;
26102;SDS011;32703;49.182;9.042;2022-07-29T11:54:23;3.17;;;2.72;;
26102;SDS011;32703;49.182;9.042;2022-07-29T11:56:57;3.35;;;2.65;;
26102;SDS011;32703;49.182;9.042;2022-07-29T11:59:22;5.40;;;2.53;;
26102;SDS011;32703;49.182;9.042;2022-07-29T12:01:56;3.28;;;2.60;;
26102;SDS011;32703;49.182;9.042;2022-07-29T12:04:25;4.60;;;2.83;;
26102;SDS011;32703;49.182;9.042;2022-07-29T12:06:53;4.32;;;2.40;;
26102;SDS011;32703;49.182;9.042;2022-07-29T12:09:19;3.88;;;2.63;;
26102;SDS011;32703;49.182;9.042;2022-07-29T12:11:46;5.18;;;2.90;;
26102;SDS011;32703;49.182;9.042;2022-07-29T12:14:29;5.10;;;2.60;;
26102;SDS011;32703;49.182;9.042;2022-07-29T12:16:56;3.78;;;2.90;;
26102;SDS011;32703;49.182;9.042;2022-07-29T12:19:22;3.28;;;2.58;;
26102;SDS011;32703;49.182;9.042;2022-07-29T12:21:51;2.97;;;2.53;;
26102;SDS011;32703;49.182;9.042;2022-07-29T12:24:19;3.20;;;2.67;;
26102;SDS011;32703;49.182;9.042;2022-07-29T12:26:53;3.40;;;2.80;;
26102;SDS011;32703;49.182;9.042;2022-07-29T12:29:23;3.97;;;3.05;;
26102;SDS011;32703;49.182;9.042;2022-07-29T12:31:54;3.72;;;2.50;;
26102;SDS011;32703;49.182;9.042;2022-07-29T12:34:22;2.88;;;2.58;;
26102;SDS011;32703;49.182;9.042;2022-07-29T12:36:51;3.75;;;3.00;;
26102;SDS011;32703;49.182;9.042;2022-07-29T12:39:17;3.55;;;2.42;;
26102;SDS011;32703;49.182;9.042;2022-07-29T12:41:46;3.88;;;2.80;;
26102;SDS011;32703;49.182;9.042;2022-07-29T12:44:12;2.90;;;2.33;;
26102;SDS011;32703;49.182;9.042;2022-07-29T12:46:38;4.40;;;2.35;;
26102;SDS011;32703;49.182;9.042;2022-07-29T12:49:03;3.45;;;2.38;;
26102;SDS011;32703;49.182;9.042;2022-07-29T12:51:36;3.90;;;2.50;;
26102;SDS011;32703;49.182;9.042;2022-07-29T12:54:04;2.92;;;2.38;;
26102;SDS011;32703;49.182;9.042;2022-07-29T12:56:32;4.28;;;2.30;;
26102;SDS011;32703;49.182;9.042;2022-07-29T12:58:59;3.60;;;2.60;;
26102;SDS011;32703;49.182;9.042;2022-07-29T13:01:24;4.78;;;2.47;;
26102;SDS011;32703;49.182;9.042;2022-07-29T13:09:08;3.10;;;2.50;;
26102;SDS011;32703;49.182;9.042;2022-07-29T13:11:42;2.47;;;2.25;;
26102;SDS011;32703;49.182;9.042;2022-07-29T13:14:10;5.90;;;2.75;;
26102;SDS011;32703;49.182;9.042;2022-07-29T13:17:00;4.55;;;2.70;;
26102;SDS011;32703;49.182;9.042;2022-07-29T13:22:02;3.22;;;2.03;;
26102;SDS011;32703;49.182;9.042;2022-07-29T13:24:29;3.10;;;2.50;;
26102;SDS011;32703;49.182;9.042;2022-07-29T13:26:55;2.50;;;2.13;;
26102;SDS011;32703;49.182;9.042;2022-07-29T13:29:20;3.50;;;2.70;;
26102;SDS011;32703;49.182;9.042;2022-07-29T13:31:46;2.60;;;2.40;;
26102;SDS011;32703;49.182;9.042;2022-07-29T13:34:11;4.80;;;2.40;;
26102;SDS011;32703;49.182;9.042;2022-07-29T13:36:37;4.47;;;2.40;;
26102;SDS011;32703;49.182;9.042;2022-07-29T13:39:02;4.07;;;2.42;;
26102;SDS011;32703;49.182;9.042;2022-07-29T13:41:28;3.67;;;2.55;;
26102;SDS011;32703;49.182;9.042;2022-07-29T13:43:54;6.88;;;2.63;;
26102;SDS011;32703;49.182;9.042;2022-07-29T13:46:20;2.40;;;2.20;;
26102;SDS011;32703;49.182;9.042;2022-07-29T13:48:45;3.83;;;2.50;;
26102;SDS011;32703;49.182;9.042;2022-07-29T13:51:11;2.88;;;2.33;;
26102;SDS011;32703;49.182;9.042;2022-07-29T13:53:37;3.58;;;2.58;;
26102;SDS011;32703;49.182;9.042;2022-07-29T13:56:03;6.65;;;2.72;;
26102;SDS011;32703;49.182;9.042;2022-07-29T13:58:30;3.00;;;2.63;;
26102;SDS011;32703;49.182;9.042;2022-07-29T14:00:57;3.28;;;2.67;;
26102;SDS011;32703;49.182;9.042;2022-07-29T14:03:22;3.47;;;2.78;;
26102;SDS011;32703;49.182;9.042;2022-07-29T14:05:50;4.38;;;2.45;;
26102;SDS011;32703;49.182;9.042;2022-07-29T14:08:16;4.38;;;2.67;;
26102;SDS011;32703;49.182;9.042;2022-07-29T14:10:41;3.17;;;2.50;;
26102;SDS011;32703;49.182;9.042;2022-07-29T14:13:07;4.28;;;2.78;;
26102;SDS011;32703;49.182;9.042;2022-07-29T14:15:33;3.00;;;2.70;;
26102;SDS011;32703;49.182;9.042;2022-07-29T14:17:58;3.10;;;2.53;;
26102;SDS011;32703;49.182;9.042;2022-07-29T14:20:24;3.40;;;2.38;;
26102;SDS011;32703;49.182;9.042;2022-07-29T14:22:49;4.40;;;2.65;;
26102;SDS011;32703;49.182;9.042;2022-07-29T14:25:15;5.45;;;2.63;;
26102;SDS011;32703;49.182;9.042;2022-07-29T14:27:41;3.33;;;2.50;;
26102;SDS011;32703;49.182;9.042;2022-07-29T14:30:10;3.38;;;2.50;;
26102;SDS011;32703;49.182;9.042;2022-07-29T14:32:35;3.30;;;2.58;;
26102;SDS011;32703;49.182;9.042;2022-07-29T14:35:01;3.33;;;2.65;;
26102;SDS011;32703;49.182;9.042;2022-07-29T14:37:27;2.97;;;2.25;;
26102;SDS011;32703;49.182;9.042;2022-07-29T14:39:52;3.58;;;2.50;;
26102;SDS011;32703;49.182;9.042;2022-07-29T14:42:19;3.83;;;2.40;;
26102;SDS011;32703;49.182;9.042;2022-07-29T14:44:44;3.28;;;2.50;;
26102;SDS011;32703;49.182;9.042;2022-07-29T14:47:10;3.15;;;2.47;;
26102;SDS011;32703;49.182;9.042;2022-07-29T14:49:35;2.88;;;2.55;;
26102;SDS011;32703;49.182;9.042;2022-07-29T14:52:01;3.95;;;2.40;;
26102;SDS011;32703;49.182;9.042;2022-07-29T14:54:27;3.10;;;2.28;;
26102;SDS011;32703;49.182;9.042;2022-07-29T14:56:53;3.70;;;2.03;;
26102;SDS011;32703;49.182;9.042;2022-07-29T14:59:21;4.22;;;2.33;;
26102;SDS011;32703;49.182;9.042;2022-07-29T15:01:47;2.10;;;1.90;;
26102;SDS011;32703;49.182;9.042;2022-07-29T15:04:12;3.03;;;2.00;;
26102;SDS011;32703;49.182;9.042;2022-07-29T15:06:38;2.60;;;2.28;;
26102;SDS011;32703;49.182;9.042;2022-07-29T15:09:03;2.90;;;2.10;;
26102;SDS011;32703;49.182;9.042;2022-07-29T15:11:29;2.15;;;1.85;;
26102;SDS011;32703;49.182;9.042;2022-07-29T15:13:55;4.75;;;2.20;;
26102;SDS011;32703;49.182;9.042;2022-07-29T15:16:20;2.58;;;1.98;;
26102;SDS011;32703;49.182;9.042;2022-07-29T15:18:46;3.22;;;1.90;;
26102;SDS011;32703;49.182;9.042;2022-07-29T15:21:12;2.20;;;1.70;;
26102;SDS011;32703;49.182;9.042;2022-07-29T15:23:37;4.53;;;1.70;;
26102;SDS011;32703;49.182;9.042;2022-07-29T15:26:03;2.35;;;1.70;;
26102;SDS011;32703;49.182;9.042;2022-07-29T15:28:29;2.65;;;1.83;;
26102;SDS011;32703;49.182;9.042;2022-07-29T15:30:55;2.17;;;1.60;;
26102;SDS011;32703;49.182;9.042;2022-07-29T15:33:20;1.80;;;1.48;;
26102;SDS011;32703;49.182;9.042;2022-07-29T15:35:46;2.42;;;1.60;;